ADDS METAR Data INFO
IDs: Format: Raw Decoded Include TAF

Data at: 0233 UTC 22 Jul 2017

KIAH 220153Z 18006KT 10SM FEW030 FEW060 BKN130 BKN300 29/24 A2995 RMK AO2 RAE00 SLP141 P0000 T02940239
KIAH 220053Z 18006KT 10SM -RA FEW030 FEW060 BKN100 BKN300 28/24 A2994 RMK AO2 SLP137 OCNL LTGICCG DSNT W-NW CB DSNT W-NW P0036 T02830244
KIAH 212353Z 10008KT 10SM RA FEW025 SCT040 BKN070 BKN300 28/25 A2996 RMK AO2 RAB29 TSB08E37 SLP143 VIS NW 2 P0014 60014 T02830250 10356 20283 56002
KIAH 212337Z 09013KT 10SM -RA FEW025 SCT040 BKN060 BKN300 28/24 A2995 RMK AO2 RAB29 TSB08E37 TS DSIPT P0001 T02830244
KIAH 212308Z 06012KT 10SM TS SCT040CB BKN060 BKN300 31/24 A2995 RMK AO2 TSB08 VCSH NE AND W OCNL LTGICCG NE TS NE STNRY CB DSNT E AND SW T03060244
KIAH 212253Z 07013KT 10SM FEW035 BKN055TCU BKN300 30/24 A2996 RMK AO2 LTG DSNT E TSB07E41 SLP143 VCSH NE-E TCU ALQDS CB DSNT E STNRY T03000239
KIAH 212241Z 06016KT 10SM BKN055TCU BKN300 31/24 A2995 RMK AO2 TSB07E41 TS DSIPT VCSH NE-E TCU ALQDS CB DSNT E QSTNRY T03110244
KIAH 212207Z COR 14011KT 10SM TS SCT050CB SCT110 BKN300 32/22 A2994 RMK AO2 TSB07 VCSH E OCNL LTGICCG NE-E TS NE-E MOV W CB DSNT E T03220222
KIAH 212153Z 15011KT 10SM SCT050TCU SCT110 BKN300 32/23 A2994 RMK AO2 LTG DSNT E SLP137 CB DSNT E MOV E TCU NE-E T03220228
KIAH 212053Z 10007KT 10SM SCT045 BKN300 34/23 A2996 RMK AO2 LTG DSNT S SLP144 T03390228 57021
KIAH 211953Z VRB04KT 10SM SCT038 BKN300 35/22 A2998 RMK AO2 SLP151 T03500222
KIAH 211853Z 15003KT 10SM SCT035 BKN300 34/22 A3000 RMK AO2 SLP159 T03440222 $
KIAH 211753Z 00000KT 10SM FEW030 BKN300 33/22 A3002 RMK AO2 SLP166 T03330222 10333 20244 58010
KIAH 211653Z COR VRB03KT 10SM SCT030 BKN300 CLR 33/24 A3004 RMK AO2 SLP170 T03280239
KIAH 211553Z 00000KT 10SM SCT025 BKN300 31/24 A3005 RMK AO2 SLP174 T03110239
KIAH 211453Z 27004KT 10SM SCT020 BKN300 31/24 A3006 RMK AO2 SLP176 T03060244 50009
KIAH 211353Z 00000KT 10SM FEW025 SCT050 BKN300 29/25 A3006 RMK AO2 SLP178 T02940250
KIAH 211253Z 00000KT 10SM FEW020 FEW250 28/25 A3005 RMK AO2 SLP175 T02780250
KIAH 211153Z 00000KT 10SM FEW020 SCT250 25/23 A3003 RMK AO2 SLP167 T02500233 10278 20244 53008
KIAH 211053Z 00000KT 10SM FEW020 FEW250 25/23 A3002 RMK AO2 SLP164 T02500233
KIAH 210953Z 00000KT 10SM FEW250 26/23 A3001 RMK AO2 SLP159 T02560233
KIAH 210853Z 00000KT 10SM FEW250 27/23 A3000 RMK AO2 SLP158 T02670233 58009
KIAH 210753Z 00000KT 10SM FEW250 26/23 A3002 RMK AO2 SLP163 T02560233
KIAH 210653Z 21003KT 10SM FEW250 27/23 A3002 RMK AO2 SLP164 T02720228
KIAH 210553Z 21003KT 10SM FEW250 28/23 A3003 RMK AO2 SLP167 T02830228 10339 20278 403610250 50004
KIAH 210453Z 21004KT 10SM FEW250 29/23 A3003 RMK AO2 SLP168 T02890228
KIAH 210353Z 20004KT 10SM SCT250 29/23 A3003 RMK AO2 SLP168 T02940228
KIAH 210253Z 18005KT 10SM SCT250 30/23 A3002 RMK AO2 SLP163 T03000228 53008
KIAH 210153Z 18005KT 10SM FEW045 FEW100 SCT250 31/24 A3000 RMK AO2 SLP158 T03060239
KIAH 210133Z 18005KT 10SM FEW050 FEW100 SCT250 31/24 A3000 RMK AO2 T03110239
KIAH 210053Z 18011KT 10SM FEW050 FEW100 SCT250 32/24 A3000 RMK AO2 SLP156 OCNL LTGICCG DSNT SW AND W CB DSNT SW AND W T03170239
KIAH 202353Z 17007KT 10SM SCT055 SCT250 34/23 A2999 RMK AO2 LTG DSNT SW SLP155 CB DSNT SW T03390228 10361 20339 56013
KIAH 202253Z 12008KT 10SM SCT055 SCT250 34/22 A3000 RMK AO2 SLP156 T03390222
KIAH 202153Z VRB04KT 10SM SCT055 SCT250 35/22 A3001 RMK AO2 SLP161 T03500222
KIAH 202053Z VRB05KT 10SM SCT050 SCT270 35/22 A3003 RMK AO2 SLP168 T03500222 58022
KIAH 201953Z VRB03KT 10SM SCT050 34/22 A3005 RMK AO2 SLP176 T03440217
KIAH 201853Z 00000KT 10SM SCT045 35/23 A3008 RMK AO2 SLP184 T03500228
KIAH 201753Z 20004KT 10SM SCT040 34/22 A3010 RMK AO2 SLP190 T03390222 10339 20250 58013
KIAH 201653Z 30006KT 10SM SCT037 SCT280 33/23 A3012 RMK AO2 SLP197 T03280228
KIAH 201553Z 26006KT 10SM SCT030 SCT280 32/24 A3013 RMK AO2 SLP200 T03220239
KIAH 201453Z 28006KT 10SM SCT021 SCT280 31/25 A3014 RMK AO2 SLP203 T03110250 50006